Strona główna
METAR-TAF:

METAR-TAF

Lotnisko :

Port lotniczy Madryt-Barajas

Madryt, Hiszpania

Szerokość geograficzna: 40-27N, Długość geograficzna: 003-33W, wysokość: 609 m

Aktualna obserwacja pogody

Raport powstał 41 minut temu, godzina 08:00 UTC
Wiatr 4 kt z kierunków zmiennych
Temperatura 21°C
Wilgotność 40%
Ciśnienie 1025 hPa
Widzialność 10 km lub więcej
Brak chmur poniżej 1500 m i brak chmur cumulonimbus

METAR: LEMD 280800Z VRB04KT CAVOK 21/07 Q1025 NOSIG

czas: 10:41 (08:41 UTC)

Prognoza

Raport powstał 3 godziny i 41 minut temu, godzina 05:00 UTC
Prognoza ważna od 28 godzina 06 UTC do 29 godzina 12 UTC
Wiatr 6 kt od północno-północny wschód
Widzialność 10 km lub więcej
Brak chmur poniżej 1500 m i brak chmur cumulonimbus
Stopniowe zmiany
od 28 godzina 07 UTC do 28 godzina 08 UTC
Wiatr 8 kt od wschód

TAF: LEMD 280500Z 2806/2912 03006KT CAVOK TX30/2816Z TN14/2806Z BECMG 2807/2808 10008KT

Obserwacja i prognoza pogody dla ponad 4000 lotnisk (raport METAR i TAF).

Dostępne stacje oznaczono żółtymi i czerwonymi punktami na mapie.

Najedź kursorem aby zobaczyć nazwę stacji.

Kliknij aby zobaczyć obserwacje i prognozy pogody.

Aby zmienić mapę: kliknij na zielony przycisk z czarnym krzyżykiem, aby powiększyć; na zielony przycisk z myślnikiem, aby pomniejszyć; na zielone strzałki, aby przejść do map sąsiednich.


METAR-TAF: